createdAt,value
2018-07-28T00:01:17.416Z,13.33
2018-07-28T00:03:56.181Z,12.67
2018-07-28T00:06:29.532Z,14.00
2018-07-28T00:09:11.437Z,11.67
2018-07-28T00:11:44.771Z,13.33
2018-07-28T00:14:22.503Z,14.33
2018-07-28T00:16:55.616Z,12.33
2018-07-28T00:19:41.193Z,14.67
2018-07-28T00:25:02.605Z,12.33
2018-07-28T00:27:36.236Z,14.00
2018-07-28T00:30:18.405Z,12.00
2018-07-28T00:32:51.374Z,12.67
2018-07-28T00:42:01.242Z,13.00
2018-07-28T00:44:39.329Z,13.67
2018-07-28T00:52:47.618Z,12.67
2018-07-28T00:58:25.368Z,14.00
2018-07-28T01:00:59.462Z,13.67
2018-07-28T01:03:34.578Z,15.00
2018-07-28T01:06:11.190Z,13.00
2018-07-28T01:08:49.280Z,13.00
2018-07-28T01:11:28.048Z,11.33
2018-07-28T01:13:58.501Z,12.67
2018-07-28T01:16:29.305Z,12.00
2018-07-28T01:19:02.803Z,12.67
2018-07-28T01:21:33.454Z,11.33
2018-07-28T01:24:04.243Z,12.00
2018-07-28T01:26:34.539Z,11.67
2018-07-28T01:29:11.278Z,13.67
2018-07-28T01:31:43.797Z,13.00
2018-07-28T01:34:27.872Z,12.33
2018-07-28T01:37:02.107Z,14.00
2018-07-28T01:39:34.585Z,15.00
2018-07-28T01:42:11.473Z,14.33
2018-07-28T01:44:45.064Z,13.00
2018-07-28T01:47:25.189Z,14.33
2018-07-28T01:49:56.694Z,14.67
2018-07-28T01:52:29.251Z,13.67
2018-07-28T01:55:10.591Z,12.67
2018-07-28T01:58:12.010Z,13.67
2018-07-28T02:01:38.684Z,12.00
2018-07-28T02:05:05.052Z,12.33
2018-07-28T02:07:43.580Z,13.00
2018-07-28T02:10:16.061Z,12.67
2018-07-28T02:12:47.054Z,14.00
2018-07-28T02:18:16.969Z,14.33
2018-07-28T02:20:49.487Z,14.00
2018-07-28T02:23:21.101Z,13.33
2018-07-28T02:25:51.744Z,13.67
2018-07-28T02:28:22.398Z,14.00
2018-07-28T02:30:54.188Z,13.33
2018-07-28T02:33:24.828Z,14.33
2018-07-28T02:35:55.696Z,14.00
2018-07-28T02:38:27.023Z,15.33
2018-07-28T02:40:57.752Z,15.00
2018-07-28T02:43:28.209Z,13.67
2018-07-28T02:45:58.973Z,13.67
2018-07-28T02:48:30.359Z,14.00
2018-07-28T02:51:01.010Z,15.67
2018-07-28T02:53:31.347Z,14.00
2018-07-28T02:56:02.286Z,15.00
2018-07-28T02:58:34.579Z,14.00
2018-07-28T03:01:05.151Z,13.67
2018-07-28T03:03:35.575Z,15.00
2018-07-28T03:06:05.986Z,14.33
2018-07-28T03:08:36.405Z,13.00
2018-07-28T03:11:06.979Z,14.67
2018-07-28T03:13:38.726Z,11.67
2018-07-28T03:16:14.884Z,14.00
2018-07-28T03:18:45.393Z,14.33
2018-07-28T03:21:17.821Z,14.67
2018-07-28T03:23:48.490Z,14.33
2018-07-28T03:26:21.106Z,13.33
2018-07-28T03:28:52.323Z,14.00
2018-07-28T03:31:24.999Z,13.67
2018-07-28T03:33:55.549Z,13.00
2018-07-28T03:36:26.584Z,14.00
2018-07-28T03:38:57.160Z,13.00
2018-07-28T03:41:27.826Z,14.00
2018-07-28T03:43:58.915Z,11.67
2018-07-28T03:46:30.321Z,13.67
2018-07-28T03:49:03.536Z,13.33
2018-07-28T03:51:34.252Z,16.00
2018-07-28T03:54:06.032Z,13.00
2018-07-28T03:56:36.761Z,14.67
2018-07-28T03:59:07.943Z,14.00
2018-07-28T04:01:38.707Z,13.67
2018-07-28T04:04:10.881Z,13.33
2018-07-28T04:06:41.910Z,12.33
2018-07-28T04:09:14.535Z,13.00
2018-07-28T04:11:45.475Z,13.00
2018-07-28T04:14:16.186Z,14.00
2018-07-28T04:16:46.913Z,13.00
2018-07-28T04:19:18.034Z,13.00
2018-07-28T04:21:48.736Z,13.00
2018-07-28T04:24:26.303Z,14.33
2018-07-28T04:26:56.822Z,14.00
2018-07-28T04:29:27.528Z,13.67
2018-07-28T04:31:58.503Z,11.67
2018-07-28T04:34:29.817Z,13.67
2018-07-28T04:37:01.797Z,13.33
2018-07-28T04:39:32.694Z,11.00
2018-07-28T04:42:03.375Z,12.00
2018-07-28T04:44:37.627Z,13.67
2018-07-28T04:47:10.105Z,12.00
2018-07-28T04:49:40.548Z,11.00
2018-07-28T04:52:12.292Z,12.00
2018-07-28T04:54:43.077Z,13.00
2018-07-28T04:57:13.945Z,13.33
2018-07-28T04:59:44.948Z,13.00
2018-07-28T05:02:17.472Z,13.00
2018-07-28T05:04:48.734Z,12.00
2018-07-28T05:07:23.781Z,12.33
2018-07-28T05:09:54.821Z,13.00
2018-07-28T05:12:26.366Z,16.00
2018-07-28T05:14:57.019Z,16.67
2018-07-28T05:17:27.674Z,18.33
2018-07-28T05:19:58.759Z,16.00
2018-07-28T05:22:29.514Z,15.67
2018-07-28T05:25:00.694Z,13.33
2018-07-28T05:27:32.897Z,14.00
2018-07-28T05:30:03.396Z,14.67
2018-07-28T05:32:33.780Z,13.00
2018-07-28T05:35:04.441Z,13.00
2018-07-28T05:37:35.069Z,13.67
2018-07-28T05:40:06.845Z,12.33
2018-07-28T05:42:37.370Z,14.33
2018-07-28T05:47:52.099Z,13.00
2018-07-28T05:50:24.513Z,12.33
2018-07-28T05:52:55.240Z,14.00
2018-07-28T05:55:26.181Z,12.67
2018-07-28T05:57:58.361Z,14.00
2018-07-28T06:00:32.759Z,14.00
2018-07-28T06:03:06.604Z,15.00
2018-07-28T06:05:38.343Z,12.33
2018-07-28T06:08:08.948Z,14.00
2018-07-28T06:10:40.113Z,14.00
2018-07-28T06:13:11.243Z,13.00
2018-07-28T06:15:45.594Z,13.00
2018-07-28T06:18:19.051Z,13.67
2018-07-28T06:20:50.595Z,15.00
2018-07-28T06:23:26.435Z,15.00
2018-07-28T06:25:58.229Z,12.33
2018-07-28T06:28:31.148Z,13.00
2018-07-28T06:31:04.879Z,13.00
2018-07-28T06:33:42.135Z,15.00
2018-07-28T06:36:12.674Z,13.67
2018-07-28T06:38:44.734Z,13.00
2018-07-28T06:41:16.423Z,14.33
2018-07-28T06:43:49.251Z,12.67
2018-07-28T06:46:22.404Z,14.00
2018-07-28T06:48:54.235Z,14.00
2018-07-28T06:51:26.517Z,14.00
2018-07-28T06:53:59.662Z,13.00
2018-07-28T06:56:34.092Z,15.00
2018-07-28T06:59:09.747Z,14.67
2018-07-28T07:02:08.195Z,14.00
2018-07-28T07:04:43.491Z,13.00
2018-07-28T07:07:25.880Z,13.00
2018-07-28T07:10:01.270Z,15.00
2018-07-28T07:13:07.122Z,16.00
2018-07-28T07:19:26.571Z,16.67
2018-07-28T07:21:58.889Z,16.33
2018-07-28T07:24:29.766Z,16.00
2018-07-28T07:27:00.619Z,16.00
2018-07-28T07:29:33.079Z,15.33
2018-07-28T07:32:04.435Z,15.33
2018-07-28T07:34:35.697Z,19.00
2018-07-28T07:37:06.450Z,16.67
2018-07-28T07:39:36.836Z,16.33
2018-07-28T07:42:09.337Z,14.67
2018-07-28T07:44:40.695Z,16.67
2018-07-28T07:47:12.508Z,16.33
2018-07-28T07:49:43.575Z,16.00
2018-07-28T07:52:15.983Z,16.00
2018-07-28T07:54:46.566Z,17.00
2018-07-28T07:57:17.265Z,15.33
2018-07-28T07:59:47.672Z,16.67
2018-07-28T08:02:18.470Z,14.33
2018-07-28T08:04:48.815Z,17.33
2018-07-28T08:07:20.041Z,17.00
2018-07-28T08:09:51.347Z,16.00
2018-07-28T08:12:22.560Z,16.00
2018-07-28T08:14:53.183Z,15.00
2018-07-28T08:17:24.561Z,15.67
2018-07-28T08:19:55.795Z,19.00
2018-07-28T08:22:30.095Z,15.67
2018-07-28T08:25:00.487Z,16.67
2018-07-28T08:27:33.425Z,14.67
2018-07-28T08:30:07.857Z,14.00
2018-07-28T08:32:40.088Z,13.67
2018-07-28T08:35:11.073Z,14.00
2018-07-28T08:37:41.935Z,13.33
2018-07-28T08:40:14.812Z,13.00
2018-07-28T08:42:45.260Z,12.00
2018-07-28T08:45:17.735Z,12.67
2018-07-28T08:47:50.141Z,13.67
2018-07-28T08:50:22.306Z,13.33
2018-07-28T08:52:55.547Z,15.67
2018-07-28T08:55:27.863Z,15.33
2018-07-28T08:57:58.589Z,13.67
2018-07-28T09:00:28.951Z,14.67
2018-07-28T09:03:00.460Z,15.00
2018-07-28T09:05:30.920Z,13.67
2018-07-28T09:08:08.587Z,14.00
2018-07-28T09:10:41.507Z,13.67
2018-07-28T09:13:15.754Z,15.00
2018-07-28T09:15:48.020Z,12.33
2018-07-28T09:18:19.037Z,16.00
2018-07-28T09:20:50.376Z,13.67
2018-07-28T09:23:24.948Z,14.67
2018-07-28T09:25:55.449Z,16.00
2018-07-28T09:28:28.730Z,15.00
2018-07-28T09:30:59.127Z,16.67
2018-07-28T09:33:29.590Z,15.67
2018-07-28T09:36:00.545Z,16.67
2018-07-28T09:38:30.899Z,15.67
2018-07-28T09:41:01.738Z,16.67
2018-07-28T09:43:32.435Z,16.00
2018-07-28T09:46:03.553Z,15.00
2018-07-28T09:48:38.672Z,17.33
2018-07-28T09:51:09.954Z,15.67
2018-07-28T09:53:41.472Z,14.67
2018-07-28T09:56:11.907Z,16.33
2018-07-28T09:58:42.550Z,15.33
2018-07-28T10:01:20.066Z,18.67
2018-07-28T10:03:50.520Z,14.67
2018-07-28T10:06:20.809Z,15.00
2018-07-28T10:08:51.378Z,13.00
2018-07-28T10:11:22.375Z,14.33
2018-07-28T10:13:53.735Z,15.00
2018-07-28T10:16:24.128Z,13.33
2018-07-28T10:18:55.847Z,10.67
2018-07-28T10:21:28.634Z,11.00
2018-07-28T10:24:06.344Z,11.50
2018-07-28T10:26:38.406Z,10.33
2018-07-28T10:29:11.445Z,11.67
2018-07-28T10:31:44.884Z,11.33
2018-07-28T10:34:22.322Z,10.00
2018-07-28T10:36:57.252Z,12.67
2018-07-28T10:39:30.753Z,11.00
2018-07-28T10:42:02.210Z,12.67
2018-07-28T10:44:39.507Z,12.67
2018-07-28T10:47:11.755Z,10.67
2018-07-28T10:49:45.986Z,10.00
2018-07-28T10:52:21.145Z,11.00
2018-07-28T10:54:53.567Z,9.67
2018-07-28T10:57:26.439Z,10.00
2018-07-28T10:59:59.317Z,10.00
2018-07-28T11:02:31.681Z,10.00
2018-07-28T11:05:04.535Z,10.67
2018-07-28T11:07:43.332Z,11.00
2018-07-28T11:10:18.424Z,10.33
2018-07-28T11:12:51.650Z,10.33
2018-07-28T11:15:23.669Z,10.00
2018-07-28T11:17:57.277Z,9.00
2018-07-28T11:20:30.048Z,9.67
2018-07-28T11:23:01.587Z,8.67
2018-07-28T11:25:34.058Z,8.50
2018-07-28T11:28:09.365Z,9.00
2018-07-28T11:30:40.852Z,9.00
2018-07-28T11:33:23.890Z,9.67
2018-07-28T11:36:08.001Z,8.33
2018-07-28T11:38:50.225Z,9.00
2018-07-28T11:41:32.222Z,9.00
2018-07-28T11:44:15.580Z,11.00
2018-07-28T11:46:49.556Z,9.67
2018-07-28T11:49:21.094Z,10.67
2018-07-28T11:51:52.883Z,9.67
2018-07-28T11:54:24.863Z,10.67
2018-07-28T11:56:56.194Z,10.33
2018-07-28T11:59:28.763Z,12.00
2018-07-28T12:02:01.103Z,10.00
2018-07-28T12:04:34.679Z,11.33
2018-07-28T12:07:07.158Z,11.00
2018-07-28T12:09:39.348Z,12.67
2018-07-28T12:12:10.584Z,13.00
2018-07-28T12:14:43.446Z,13.00
2018-07-28T12:17:14.783Z,11.33
2018-07-28T12:19:47.310Z,12.67
2018-07-28T12:22:19.826Z,12.33
2018-07-28T12:24:51.386Z,12.00
2018-07-28T12:27:22.428Z,11.33
2018-07-28T12:29:53.822Z,11.33
2018-07-28T12:32:28.710Z,10.00
2018-07-28T12:35:04.922Z,8.00
2018-07-28T12:37:36.772Z,9.00
2018-07-28T12:40:09.907Z,7.67
2018-07-28T12:42:41.392Z,8.00
2018-07-28T12:45:13.585Z,7.33
2018-07-28T12:47:49.303Z,7.75
2018-07-28T12:50:27.584Z,8.00
2018-07-28T12:52:58.853Z,8.33
2018-07-28T12:55:30.879Z,8.00
2018-07-28T12:58:02.261Z,8.00
2018-07-28T13:00:35.332Z,7.00
2018-07-28T13:03:07.738Z,8.33
2018-07-28T13:05:39.303Z,8.00
2018-07-28T13:08:11.715Z,8.00
2018-07-28T13:10:45.310Z,8.00
2018-07-28T13:13:17.756Z,8.67
2018-07-28T13:15:49.844Z,7.33
2018-07-28T13:18:21.122Z,9.00
2018-07-28T13:20:53.396Z,8.00
2018-07-28T13:23:25.516Z,8.67
2018-07-28T13:25:57.863Z,9.00
2018-07-28T13:28:30.545Z,8.67
2018-07-28T13:31:02.080Z,9.00
2018-07-28T13:33:33.567Z,9.00
2018-07-28T13:36:07.586Z,7.33
2018-07-28T13:38:39.130Z,10.00
2018-07-28T13:41:11.660Z,10.00
2018-07-28T13:43:44.661Z,6.00
2018-07-28T13:46:18.235Z,8.00
2018-07-28T13:48:50.534Z,10.00
2018-07-28T13:51:22.106Z,9.67
2018-07-28T13:54:10.092Z,11.00
2018-07-28T13:56:44.755Z,9.00
2018-07-28T13:59:16.497Z,8.00
2018-07-28T14:01:49.792Z,8.67
2018-07-28T14:04:20.914Z,9.00
2018-07-28T14:06:52.987Z,9.00
2018-07-28T14:09:25.529Z,10.33
2018-07-28T14:11:57.573Z,8.67
2018-07-28T14:14:30.349Z,10.33
2018-07-28T14:17:02.610Z,9.33
2018-07-28T14:19:34.745Z,9.33
2018-07-28T14:22:06.591Z,10.67
2018-07-28T14:24:38.301Z,9.67
2018-07-28T14:27:12.597Z,9.33
2018-07-28T14:29:44.593Z,11.00
2018-07-28T14:32:16.706Z,10.00
2018-07-28T14:34:50.110Z,11.00
2018-07-28T14:37:22.307Z,10.00
2018-07-28T14:39:54.491Z,11.00
2018-07-28T14:42:26.273Z,11.00
2018-07-28T14:44:58.484Z,10.00
2018-07-28T14:47:31.395Z,10.00
2018-07-28T14:50:04.037Z,12.00
2018-07-28T14:52:37.682Z,11.67
2018-07-28T14:55:12.577Z,12.00
2018-07-28T14:57:43.279Z,11.00
2018-07-28T15:00:20.431Z,12.00
2018-07-28T15:02:51.093Z,11.33
2018-07-28T15:05:24.092Z,12.00
2018-07-28T15:07:54.479Z,11.67
2018-07-28T15:10:32.314Z,13.00
2018-07-28T15:13:04.473Z,10.33
2018-07-28T15:15:36.741Z,14.67
2018-07-28T15:18:08.349Z,14.67
2018-07-28T15:20:38.669Z,13.00
2018-07-28T15:23:12.774Z,11.33
2018-07-28T15:25:43.673Z,11.67
2018-07-28T15:28:16.328Z,11.00
2018-07-28T15:30:47.537Z,13.00
2018-07-28T15:33:17.971Z,11.33
2018-07-28T15:35:48.684Z,12.33
2018-07-28T15:38:19.135Z,11.67
2018-07-28T15:40:49.609Z,12.00
2018-07-28T15:43:25.634Z,11.00
2018-07-28T15:46:00.349Z,12.00
2018-07-28T15:48:32.849Z,12.00
2018-07-28T15:51:03.244Z,11.67
2018-07-28T15:53:34.527Z,9.67
2018-07-28T15:56:08.794Z,11.00
2018-07-28T15:58:40.267Z,11.00
2018-07-28T16:01:12.642Z,10.33
2018-07-28T16:03:46.859Z,9.67
2018-07-28T16:06:19.750Z,10.00
2018-07-28T16:08:52.879Z,8.67
2018-07-28T16:11:28.257Z,11.00
2018-07-28T16:14:05.602Z,9.00
2018-07-28T16:16:40.367Z,11.00
2018-07-28T16:19:11.284Z,10.00
2018-07-28T16:21:43.961Z,9.00
2018-07-28T16:24:17.667Z,9.67
2018-07-28T16:26:49.775Z,11.33
2018-07-28T16:29:22.575Z,8.67
2018-07-28T16:31:59.524Z,10.00
2018-07-28T16:34:32.004Z,10.00
2018-07-28T16:37:03.782Z,11.33
2018-07-28T16:39:35.072Z,8.67
2018-07-28T16:42:12.966Z,10.00
2018-07-28T16:44:44.615Z,10.67
2018-07-28T16:47:17.414Z,10.33
2018-07-28T16:49:51.308Z,10.67
2018-07-28T16:52:26.498Z,11.33
2018-07-28T16:55:00.048Z,12.00
2018-07-28T16:57:33.833Z,10.00
2018-07-28T17:00:09.362Z,11.33
2018-07-28T17:02:42.866Z,11.33
2018-07-28T17:05:17.253Z,12.00
2018-07-28T17:07:50.880Z,10.33
2018-07-28T17:10:23.481Z,9.00
2018-07-28T17:12:56.449Z,8.50
2018-07-28T17:15:33.534Z,8.67
2018-07-28T17:18:05.475Z,9.33
2018-07-28T17:20:39.264Z,10.00
2018-07-28T17:23:13.109Z,11.00
2018-07-28T17:25:45.633Z,8.67
2018-07-28T17:28:23.302Z,8.67
2018-07-28T17:31:04.032Z,9.00
2018-07-28T17:33:42.289Z,9.75
2018-07-28T17:36:20.109Z,8.00
2018-07-28T17:38:56.022Z,8.50
2018-07-28T17:41:30.590Z,9.00
2018-07-28T17:44:04.597Z,8.75
2018-07-28T17:46:38.633Z,9.00
2018-07-28T17:49:11.449Z,9.00
2018-07-28T17:51:46.841Z,8.00
2018-07-28T17:54:23.569Z,9.33
2018-07-28T17:56:56.442Z,7.00
2018-07-28T17:59:35.229Z,8.00
2018-07-28T18:02:08.082Z,8.00
2018-07-28T18:04:41.947Z,8.67
2018-07-28T18:07:13.242Z,8.00
2018-07-28T18:09:44.525Z,8.00
2018-07-28T18:12:16.988Z,8.00
2018-07-28T18:14:51.003Z,8.00
2018-07-28T18:17:24.471Z,7.00
2018-07-28T18:19:56.406Z,7.00
2018-07-28T18:22:29.619Z,6.00
2018-07-28T18:25:05.926Z,7.00
2018-07-28T18:27:38.079Z,6.25
2018-07-28T18:30:11.109Z,7.00
2018-07-28T18:32:44.370Z,6.00
2018-07-28T18:35:17.273Z,6.00
2018-07-28T18:37:51.772Z,6.67
2018-07-28T18:43:01.989Z,6.80
2018-07-28T18:45:33.853Z,6.00
2018-07-28T18:48:10.112Z,5.80
2018-07-28T18:50:41.499Z,6.33
2018-07-28T18:53:13.587Z,7.00
2018-07-28T18:55:49.659Z,6.00
2018-07-28T18:58:23.554Z,5.29
2018-07-28T19:00:55.649Z,5.33
2018-07-28T19:03:28.956Z,7.00
2018-07-28T19:06:02.855Z,6.00
2018-07-28T19:08:36.617Z,5.67
2018-07-28T19:11:14.328Z,4.71
2018-07-28T19:13:50.770Z,6.00
2018-07-28T19:16:22.195Z,5.67
2018-07-28T19:18:59.312Z,5.33
2018-07-28T19:21:31.452Z,4.80
2018-07-28T19:24:05.420Z,6.00
2018-07-28T19:26:39.297Z,5.43
2018-07-28T19:29:17.773Z,5.60
2018-07-28T19:31:51.711Z,5.00
2018-07-28T19:34:26.380Z,5.80
2018-07-28T19:37:08.516Z,5.40
2018-07-28T19:39:43.181Z,6.00
2018-07-28T19:42:20.643Z,6.00
2018-07-28T19:44:55.428Z,5.80
2018-07-28T19:47:32.446Z,5.29
2018-07-28T19:50:13.361Z,6.00
2018-07-28T19:52:50.351Z,5.67
2018-07-28T19:55:24.460Z,5.20
2018-07-28T19:57:57.293Z,6.00
2018-07-28T20:00:29.342Z,6.00
2018-07-28T20:03:02.188Z,6.40
2018-07-28T20:05:34.364Z,6.00
2018-07-28T20:08:08.710Z,6.40
2018-07-28T20:10:41.278Z,5.00
2018-07-28T20:13:14.461Z,6.40
2018-07-28T20:15:47.941Z,6.00
2018-07-28T20:18:20.863Z,6.67
2018-07-28T20:21:09.515Z,6.20
2018-07-28T20:23:42.369Z,5.67
2018-07-28T20:26:17.500Z,6.00
2018-07-28T20:28:55.205Z,6.80
2018-07-28T20:31:28.524Z,6.00
2018-07-28T20:34:01.685Z,6.00
2018-07-28T20:36:36.193Z,5.86
2018-07-28T20:39:11.719Z,5.80
2018-07-28T20:41:48.692Z,5.71
2018-07-28T20:44:22.355Z,5.20
2018-07-28T20:46:57.349Z,6.00
2018-07-28T20:49:31.477Z,5.43
2018-07-28T20:52:11.066Z,5.00
2018-07-28T20:54:43.591Z,5.40
2018-07-28T20:57:15.854Z,6.00
2018-07-28T20:59:53.165Z,6.00
2018-07-28T21:02:27.327Z,5.00
2018-07-28T21:05:04.442Z,6.00
2018-07-28T21:07:41.933Z,5.00
2018-07-28T21:10:18.193Z,4.33
2018-07-28T21:12:54.059Z,6.00
2018-07-28T21:15:30.936Z,5.20
2018-07-28T21:18:05.375Z,6.40
2018-07-28T21:20:40.222Z,6.20
2018-07-28T21:23:12.486Z,8.00
2018-07-28T21:25:47.898Z,10.00
2018-07-28T21:28:19.680Z,10.33
2018-07-28T21:30:51.445Z,11.00
2018-07-28T21:33:27.044Z,7.00
2018-07-28T21:35:58.495Z,7.00
2018-07-28T21:38:31.490Z,5.40
2018-07-28T21:41:04.814Z,7.67
2018-07-28T21:43:37.093Z,8.00
2018-07-28T21:46:09.137Z,7.33
2018-07-28T21:48:41.823Z,7.00
2018-07-28T21:51:14.578Z,7.00
2018-07-28T21:53:47.426Z,7.20
2018-07-28T21:56:22.714Z,5.33
2018-07-28T21:58:56.235Z,8.60
2018-07-28T22:01:28.200Z,7.00
2018-07-28T22:04:03.668Z,7.14
2018-07-28T22:06:35.767Z,6.60
2018-07-28T22:09:08.293Z,6.20
2018-07-28T22:11:44.009Z,7.20
2018-07-28T22:14:19.480Z,5.00
2018-07-28T22:16:51.971Z,5.40
2018-07-28T22:19:24.024Z,5.80
2018-07-28T22:21:56.134Z,5.40
2018-07-28T22:24:31.084Z,5.57
2018-07-28T22:27:03.510Z,6.20
2018-07-28T22:29:36.625Z,7.00
2018-07-28T22:32:11.417Z,5.29
2018-07-28T22:34:43.502Z,4.67
2018-07-28T22:37:15.616Z,6.00
2018-07-28T22:39:48.385Z,7.00
2018-07-28T22:42:21.174Z,8.00
2018-07-28T22:45:00.966Z,7.67
2018-07-28T22:47:33.143Z,7.00
2018-07-28T22:50:06.356Z,5.33
2018-07-28T22:52:39.411Z,6.33
2018-07-28T22:55:11.795Z,6.67
2018-07-28T22:57:43.419Z,7.00
2018-07-28T23:00:19.333Z,6.29
2018-07-28T23:02:52.678Z,6.00
2018-07-28T23:05:24.717Z,6.40
2018-07-28T23:07:57.819Z,7.80
2018-07-28T23:10:30.740Z,6.00
2018-07-28T23:13:04.382Z,6.75
2018-07-28T23:15:37.560Z,6.40
2018-07-28T23:18:09.953Z,6.00
2018-07-28T23:20:50.308Z,6.60
2018-07-28T23:23:22.880Z,6.00
2018-07-28T23:25:55.029Z,5.60
2018-07-28T23:28:27.957Z,6.60
2018-07-28T23:31:00.006Z,6.00
2018-07-28T23:33:32.491Z,6.00
2018-07-28T23:36:06.594Z,4.33
2018-07-28T23:38:40.938Z,4.00
2018-07-28T23:41:14.787Z,6.40
2018-07-28T23:43:46.280Z,4.33
2018-07-28T23:46:22.572Z,4.86
2018-07-28T23:48:57.239Z,4.60
2018-07-28T23:51:30.280Z,4.33
2018-07-28T23:54:02.564Z,6.00
2018-07-28T23:56:36.460Z,5.86
2018-07-28T23:59:10.749Z,7.00
